sensor_id;sensor_type;location;lat;lon;timestamp;P1;durP1;ratioP1;P2;durP2;ratioP2
1751;SDS011;873;47.696;8.068;2022-11-18T00:01:15;0.47;;;0.20;;
1751;SDS011;873;47.696;8.068;2022-11-18T00:03:42;1.40;;;0.20;;
1751;SDS011;873;47.696;8.068;2022-11-18T00:06:10;0.40;;;0.20;;
1751;SDS011;873;47.696;8.068;2022-11-18T00:08:37;1.07;;;0.10;;
1751;SDS011;873;47.696;8.068;2022-11-18T00:11:07;0.57;;;0.10;;
1751;SDS011;873;47.696;8.068;2022-11-18T00:13:34;0.57;;;0.10;;
1751;SDS011;873;47.696;8.068;2022-11-18T00:16:21;0.40;;;0.10;;
1751;SDS011;873;47.696;8.068;2022-11-18T00:18:48;0.23;;;0.17;;
1751;SDS011;873;47.696;8.068;2022-11-18T00:21:13;0.10;;;0.10;;
1751;SDS011;873;47.696;8.068;2022-11-18T00:23:39;0.43;;;0.10;;
1751;SDS011;873;47.696;8.068;2022-11-18T00:26:06;0.20;;;0.10;;
1751;SDS011;873;47.696;8.068;2022-11-18T00:28:33;0.30;;;0.10;;
1751;SDS011;873;47.696;8.068;2022-11-18T00:31:07;0.30;;;0.10;;
1751;SDS011;873;47.696;8.068;2022-11-18T00:33:36;2.60;;;0.23;;
1751;SDS011;873;47.696;8.068;2022-11-18T00:36:03;1.47;;;0.33;;
1751;SDS011;873;47.696;8.068;2022-11-18T00:38:29;0.23;;;0.20;;
1751;SDS011;873;47.696;8.068;2022-11-18T00:41:11;0.20;;;0.20;;
1751;SDS011;873;47.696;8.068;2022-11-18T00:43:38;0.13;;;0.13;;
1751;SDS011;873;47.696;8.068;2022-11-18T00:46:05;0.50;;;0.27;;
1751;SDS011;873;47.696;8.068;2022-11-18T00:48:32;1.33;;;0.33;;
1751;SDS011;873;47.696;8.068;2022-11-18T00:51:04;1.50;;;0.43;;
1751;SDS011;873;47.696;8.068;2022-11-18T00:53:32;1.83;;;0.30;;
1751;SDS011;873;47.696;8.068;2022-11-18T00:55:57;2.47;;;0.30;;
1751;SDS011;873;47.696;8.068;2022-11-18T00:58:23;0.90;;;0.33;;
1751;SDS011;873;47.696;8.068;2022-11-18T01:00:50;0.53;;;0.20;;
1751;SDS011;873;47.696;8.068;2022-11-18T01:03:16;0.40;;;0.30;;
1751;SDS011;873;47.696;8.068;2022-11-18T01:05:42;0.80;;;0.40;;
1751;SDS011;873;47.696;8.068;2022-11-18T01:08:07;0.70;;;0.40;;
1751;SDS011;873;47.696;8.068;2022-11-18T01:10:34;0.70;;;0.50;;
1751;SDS011;873;47.696;8.068;2022-11-18T01:13:01;2.13;;;0.50;;
1751;SDS011;873;47.696;8.068;2022-11-18T01:15:48;0.90;;;0.70;;
1751;SDS011;873;47.696;8.068;2022-11-18T01:18:14;0.90;;;0.47;;
1751;SDS011;873;47.696;8.068;2022-11-18T01:20:40;0.30;;;0.30;;
1751;SDS011;873;47.696;8.068;2022-11-18T01:23:06;0.30;;;0.20;;
1751;SDS011;873;47.696;8.068;2022-11-18T01:25:31;1.80;;;0.57;;
1751;SDS011;873;47.696;8.068;2022-11-18T01:28:00;1.07;;;0.20;;
1751;SDS011;873;47.696;8.068;2022-11-18T01:30:25;1.40;;;0.23;;
1751;SDS011;873;47.696;8.068;2022-11-18T01:32:51;0.30;;;0.30;;
1751;SDS011;873;47.696;8.068;2022-11-18T01:35:16;1.90;;;0.63;;
1751;SDS011;873;47.696;8.068;2022-11-18T01:37:41;1.77;;;0.37;;
1751;SDS011;873;47.696;8.068;2022-11-18T01:40:07;0.57;;;0.20;;
1751;SDS011;873;47.696;8.068;2022-11-18T01:42:33;1.23;;;0.30;;
1751;SDS011;873;47.696;8.068;2022-11-18T01:45:04;0.30;;;0.30;;
1751;SDS011;873;47.696;8.068;2022-11-18T01:47:36;2.00;;;0.50;;
1751;SDS011;873;47.696;8.068;2022-11-18T01:50:05;0.40;;;0.40;;
1751;SDS011;873;47.696;8.068;2022-11-18T01:52:32;1.70;;;0.57;;
1751;SDS011;873;47.696;8.068;2022-11-18T01:54:59;2.43;;;0.60;;
1751;SDS011;873;47.696;8.068;2022-11-18T01:57:30;1.30;;;0.50;;
1751;SDS011;873;47.696;8.068;2022-11-18T01:59:57;1.43;;;0.40;;
1751;SDS011;873;47.696;8.068;2022-11-18T02:02:24;0.53;;;0.37;;
1751;SDS011;873;47.696;8.068;2022-11-18T02:04:51;1.27;;;0.40;;
1751;SDS011;873;47.696;8.068;2022-11-18T02:07:17;0.30;;;0.30;;
1751;SDS011;873;47.696;8.068;2022-11-18T02:09:44;1.00;;;0.27;;
1751;SDS011;873;47.696;8.068;2022-11-18T02:12:09;0.43;;;0.30;;
1751;SDS011;873;47.696;8.068;2022-11-18T02:14:36;0.73;;;0.20;;
1751;SDS011;873;47.696;8.068;2022-11-18T02:20:08;0.30;;;0.20;;
1751;SDS011;873;47.696;8.068;2022-11-18T02:30:49;0.30;;;0.20;;
1751;SDS011;873;47.696;8.068;2022-11-18T02:33:22;0.40;;;0.10;;
1751;SDS011;873;47.696;8.068;2022-11-18T02:38:41;0.80;;;0.20;;
1751;SDS011;873;47.696;8.068;2022-11-18T02:41:09;0.50;;;0.40;;
1751;SDS011;873;47.696;8.068;2022-11-18T02:43:40;0.40;;;0.10;;
1751;SDS011;873;47.696;8.068;2022-11-18T02:46:10;0.20;;;0.20;;
1751;SDS011;873;47.696;8.068;2022-11-18T02:48:40;1.17;;;0.17;;
1751;SDS011;873;47.696;8.068;2022-11-18T02:51:09;0.40;;;0.20;;
1751;SDS011;873;47.696;8.068;2022-11-18T02:53:37;0.67;;;0.20;;
1751;SDS011;873;47.696;8.068;2022-11-18T02:56:03;1.33;;;0.10;;
1751;SDS011;873;47.696;8.068;2022-11-18T02:58:29;0.37;;;0.17;;
1751;SDS011;873;47.696;8.068;2022-11-18T03:00:56;0.77;;;0.30;;
1751;SDS011;873;47.696;8.068;2022-11-18T03:05:52;0.50;;;0.27;;
1751;SDS011;873;47.696;8.068;2022-11-18T03:08:44;1.07;;;0.43;;
1751;SDS011;873;47.696;8.068;2022-11-18T03:11:17;0.30;;;0.27;;
1751;SDS011;873;47.696;8.068;2022-11-18T03:16:35;0.20;;;0.10;;
1751;SDS011;873;47.696;8.068;2022-11-18T03:19:08;0.10;;;0.10;;
1751;SDS011;873;47.696;8.068;2022-11-18T03:21:44;0.10;;;0.10;;
1751;SDS011;873;47.696;8.068;2022-11-18T03:24:17;0.43;;;0.20;;
1751;SDS011;873;47.696;8.068;2022-11-18T03:26:47;0.10;;;0.10;;
1751;SDS011;873;47.696;8.068;2022-11-18T03:31:48;0.63;;;0.10;;
1751;SDS011;873;47.696;8.068;2022-11-18T03:34:17;0.43;;;0.10;;
1751;SDS011;873;47.696;8.068;2022-11-18T03:36:46;0.20;;;0.10;;
1751;SDS011;873;47.696;8.068;2022-11-18T03:39:14;0.10;;;0.10;;
1751;SDS011;873;47.696;8.068;2022-11-18T03:41:43;0.20;;;0.20;;
1751;SDS011;873;47.696;8.068;2022-11-18T03:44:12;0.20;;;0.20;;
1751;SDS011;873;47.696;8.068;2022-11-18T03:46:44;0.30;;;0.30;;
1751;SDS011;873;47.696;8.068;2022-11-18T03:49:14;0.30;;;0.30;;
1751;SDS011;873;47.696;8.068;2022-11-18T03:51:44;0.10;;;0.10;;
1751;SDS011;873;47.696;8.068;2022-11-18T03:54:17;0.20;;;0.00;;
1751;SDS011;873;47.696;8.068;2022-11-18T03:56:47;0.00;;;0.00;;
1751;SDS011;873;47.696;8.068;2022-11-18T03:59:20;0.00;;;0.00;;
1751;SDS011;873;47.696;8.068;2022-11-18T04:01:52;0.03;;;0.00;;
1751;SDS011;873;47.696;8.068;2022-11-18T04:04:34;0.40;;;0.00;;
1751;SDS011;873;47.696;8.068;2022-11-18T04:07:02;0.00;;;0.00;;
1751;SDS011;873;47.696;8.068;2022-11-18T04:09:38;0.30;;;0.10;;
1751;SDS011;873;47.696;8.068;2022-11-18T04:12:07;0.00;;;0.00;;
1751;SDS011;873;47.696;8.068;2022-11-18T04:14:36;0.10;;;0.10;;
1751;SDS011;873;47.696;8.068;2022-11-18T04:17:11;0.00;;;0.00;;
1751;SDS011;873;47.696;8.068;2022-11-18T04:19:38;0.00;;;0.00;;
1751;SDS011;873;47.696;8.068;2022-11-18T04:22:04;0.20;;;0.10;;
1751;SDS011;873;47.696;8.068;2022-11-18T04:24:30;0.37;;;0.07;;
1751;SDS011;873;47.696;8.068;2022-11-18T04:26:56;0.00;;;0.00;;
1751;SDS011;873;47.696;8.068;2022-11-18T04:29:21;0.63;;;0.00;;
1751;SDS011;873;47.696;8.068;2022-11-18T04:31:47;0.13;;;0.00;;
1751;SDS011;873;47.696;8.068;2022-11-18T04:34:12;0.10;;;0.00;;
1751;SDS011;873;47.696;8.068;2022-11-18T04:36:38;0.20;;;0.00;;
1751;SDS011;873;47.696;8.068;2022-11-18T04:39:03;0.10;;;0.00;;
1751;SDS011;873;47.696;8.068;2022-11-18T04:41:29;0.00;;;0.00;;
1751;SDS011;873;47.696;8.068;2022-11-18T04:44:15;0.00;;;0.00;;
1751;SDS011;873;47.696;8.068;2022-11-18T04:46:41;0.10;;;0.00;;
1751;SDS011;873;47.696;8.068;2022-11-18T04:49:08;0.00;;;0.00;;
1751;SDS011;873;47.696;8.068;2022-11-18T04:51:34;0.50;;;0.40;;
1751;SDS011;873;47.696;8.068;2022-11-18T04:54:01;0.00;;;0.00;;
1751;SDS011;873;47.696;8.068;2022-11-18T04:56:27;2.83;;;0.00;;
1751;SDS011;873;47.696;8.068;2022-11-18T04:58:52;0.00;;;0.00;;
1751;SDS011;873;47.696;8.068;2022-11-18T05:01:18;0.00;;;0.00;;
1751;SDS011;873;47.696;8.068;2022-11-18T05:03:43;0.00;;;0.00;;
1751;SDS011;873;47.696;8.068;2022-11-18T05:06:09;1.37;;;0.10;;
1751;SDS011;873;47.696;8.068;2022-11-18T05:08:34;0.37;;;0.00;;
1751;SDS011;873;47.696;8.068;2022-11-18T05:11:04;0.00;;;0.00;;
1751;SDS011;873;47.696;8.068;2022-11-18T05:13:50;0.00;;;0.00;;
1751;SDS011;873;47.696;8.068;2022-11-18T05:16:15;0.00;;;0.00;;
1751;SDS011;873;47.696;8.068;2022-11-18T05:18:41;0.00;;;0.00;;
1751;SDS011;873;47.696;8.068;2022-11-18T05:21:07;0.00;;;0.00;;
1751;SDS011;873;47.696;8.068;2022-11-18T05:23:33;0.07;;;0.00;;
1751;SDS011;873;47.696;8.068;2022-11-18T05:26:02;0.00;;;0.00;;
1751;SDS011;873;47.696;8.068;2022-11-18T05:28:28;0.00;;;0.00;;
1751;SDS011;873;47.696;8.068;2022-11-18T05:30:54;0.03;;;0.00;;
1751;SDS011;873;47.696;8.068;2022-11-18T05:33:19;0.00;;;0.00;;
1751;SDS011;873;47.696;8.068;2022-11-18T05:35:44;0.00;;;0.00;;
1751;SDS011;873;47.696;8.068;2022-11-18T05:38:10;0.30;;;0.00;;
1751;SDS011;873;47.696;8.068;2022-11-18T05:40:35;0.20;;;0.00;;
1751;SDS011;873;47.696;8.068;2022-11-18T05:43:01;0.00;;;0.00;;
1751;SDS011;873;47.696;8.068;2022-11-18T05:45:42;0.00;;;0.00;;
1751;SDS011;873;47.696;8.068;2022-11-18T05:48:08;0.00;;;0.00;;
1751;SDS011;873;47.696;8.068;2022-11-18T05:50:35;0.00;;;0.00;;
1751;SDS011;873;47.696;8.068;2022-11-18T05:53:01;0.00;;;0.00;;
1751;SDS011;873;47.696;8.068;2022-11-18T05:55:30;0.00;;;0.00;;
1751;SDS011;873;47.696;8.068;2022-11-18T05:57:59;0.00;;;0.00;;
1751;SDS011;873;47.696;8.068;2022-11-18T06:00:25;0.10;;;0.00;;
1751;SDS011;873;47.696;8.068;2022-11-18T06:02:50;0.10;;;0.10;;
1751;SDS011;873;47.696;8.068;2022-11-18T06:05:17;0.20;;;0.10;;
1751;SDS011;873;47.696;8.068;2022-11-18T06:07:43;0.10;;;0.10;;
1751;SDS011;873;47.696;8.068;2022-11-18T06:10:11;0.10;;;0.10;;
1751;SDS011;873;47.696;8.068;2022-11-18T06:12:40;0.20;;;0.20;;
1751;SDS011;873;47.696;8.068;2022-11-18T06:17:44;0.20;;;0.20;;
1751;SDS011;873;47.696;8.068;2022-11-18T06:20:12;0.20;;;0.20;;
1751;SDS011;873;47.696;8.068;2022-11-18T06:22:38;0.13;;;0.13;;
1751;SDS011;873;47.696;8.068;2022-11-18T06:25:03;0.47;;;0.40;;
1751;SDS011;873;47.696;8.068;2022-11-18T06:27:29;0.40;;;0.30;;
1751;SDS011;873;47.696;8.068;2022-11-18T06:29:55;0.40;;;0.40;;
1751;SDS011;873;47.696;8.068;2022-11-18T06:32:20;2.00;;;0.50;;
1751;SDS011;873;47.696;8.068;2022-11-18T06:34:46;1.07;;;0.40;;
1751;SDS011;873;47.696;8.068;2022-11-18T06:37:12;11.87;;;0.70;;
1751;SDS011;873;47.696;8.068;2022-11-18T06:39:38;11.23;;;1.33;;
1751;SDS011;873;47.696;8.068;2022-11-18T06:42:03;5.27;;;0.77;;
1751;SDS011;873;47.696;8.068;2022-11-18T06:44:29;5.60;;;0.90;;
1751;SDS011;873;47.696;8.068;2022-11-18T06:46:54;4.27;;;0.70;;
1751;SDS011;873;47.696;8.068;2022-11-18T06:49:20;9.93;;;0.93;;
1751;SDS011;873;47.696;8.068;2022-11-18T06:51:46;19.67;;;1.50;;
1751;SDS011;873;47.696;8.068;2022-11-18T06:54:12;38.07;;;1.87;;
1751;SDS011;873;47.696;8.068;2022-11-18T06:56:37;24.07;;;2.03;;
1751;SDS011;873;47.696;8.068;2022-11-18T06:59:03;61.07;;;2.97;;
1751;SDS011;873;47.696;8.068;2022-11-18T07:01:29;10.27;;;2.33;;
1751;SDS011;873;47.696;8.068;2022-11-18T07:03:57;23.30;;;1.77;;
1751;SDS011;873;47.696;8.068;2022-11-18T07:06:24;0.80;;;0.80;;
1751;SDS011;873;47.696;8.068;2022-11-18T07:08:51;2.77;;;0.80;;
1751;SDS011;873;47.696;8.068;2022-11-18T07:11:18;6.40;;;1.07;;
1751;SDS011;873;47.696;8.068;2022-11-18T07:13:45;3.10;;;0.97;;
1751;SDS011;873;47.696;8.068;2022-11-18T07:16:12;1.67;;;0.60;;
1751;SDS011;873;47.696;8.068;2022-11-18T07:18:40;0.70;;;0.70;;
1751;SDS011;873;47.696;8.068;2022-11-18T07:21:07;0.70;;;0.50;;
1751;SDS011;873;47.696;8.068;2022-11-18T07:23:34;1.23;;;0.70;;
1751;SDS011;873;47.696;8.068;2022-11-18T07:26:00;1.00;;;0.77;;
1751;SDS011;873;47.696;8.068;2022-11-18T07:28:27;0.40;;;0.40;;
1751;SDS011;873;47.696;8.068;2022-11-18T07:30:58;0.70;;;0.70;;
1751;SDS011;873;47.696;8.068;2022-11-18T07:33:26;1.50;;;0.63;;
1751;SDS011;873;47.696;8.068;2022-11-18T07:35:52;0.50;;;0.50;;
1751;SDS011;873;47.696;8.068;2022-11-18T07:38:17;0.40;;;0.40;;
1751;SDS011;873;47.696;8.068;2022-11-18T07:40:43;1.50;;;0.37;;
1751;SDS011;873;47.696;8.068;2022-11-18T07:43:08;0.50;;;0.40;;
1751;SDS011;873;47.696;8.068;2022-11-18T07:45:33;0.30;;;0.30;;
1751;SDS011;873;47.696;8.068;2022-11-18T07:47:59;0.37;;;0.37;;
1751;SDS011;873;47.696;8.068;2022-11-18T07:50:25;0.53;;;0.50;;
1751;SDS011;873;47.696;8.068;2022-11-18T07:52:50;1.13;;;0.40;;
1751;SDS011;873;47.696;8.068;2022-11-18T07:55:19;0.53;;;0.50;;
1751;SDS011;873;47.696;8.068;2022-11-18T07:57:45;0.40;;;0.40;;
1751;SDS011;873;47.696;8.068;2022-11-18T08:00:10;0.50;;;0.50;;
1751;SDS011;873;47.696;8.068;2022-11-18T08:02:36;0.53;;;0.53;;
1751;SDS011;873;47.696;8.068;2022-11-18T08:05:02;0.50;;;0.50;;
1751;SDS011;873;47.696;8.068;2022-11-18T08:07:28;1.37;;;0.97;;
1751;SDS011;873;47.696;8.068;2022-11-18T08:09:53;0.70;;;0.60;;
1751;SDS011;873;47.696;8.068;2022-11-18T08:12:19;1.17;;;0.90;;
1751;SDS011;873;47.696;8.068;2022-11-18T08:14:44;0.70;;;0.70;;
1751;SDS011;873;47.696;8.068;2022-11-18T08:17:10;0.90;;;0.80;;
1751;SDS011;873;47.696;8.068;2022-11-18T08:19:36;2.30;;;1.23;;
1751;SDS011;873;47.696;8.068;2022-11-18T08:22:01;1.50;;;0.87;;
1751;SDS011;873;47.696;8.068;2022-11-18T08:24:27;1.00;;;0.80;;
1751;SDS011;873;47.696;8.068;2022-11-18T08:26:52;1.83;;;0.80;;
1751;SDS011;873;47.696;8.068;2022-11-18T08:29:18;0.80;;;0.80;;
1751;SDS011;873;47.696;8.068;2022-11-18T08:31:44;1.40;;;0.97;;
1751;SDS011;873;47.696;8.068;2022-11-18T08:34:09;2.37;;;0.70;;
1751;SDS011;873;47.696;8.068;2022-11-18T08:36:35;0.23;;;0.23;;
1751;SDS011;873;47.696;8.068;2022-11-18T08:39:03;0.80;;;0.40;;
1751;SDS011;873;47.696;8.068;2022-11-18T08:41:31;0.30;;;0.30;;
1751;SDS011;873;47.696;8.068;2022-11-18T08:44:02;0.83;;;0.50;;
1751;SDS011;873;47.696;8.068;2022-11-18T08:46:28;1.00;;;0.67;;
1751;SDS011;873;47.696;8.068;2022-11-18T08:48:54;0.97;;;0.70;;
1751;SDS011;873;47.696;8.068;2022-11-18T08:51:20;0.70;;;0.70;;
1751;SDS011;873;47.696;8.068;2022-11-18T08:53:45;0.60;;;0.60;;
1751;SDS011;873;47.696;8.068;2022-11-18T08:56:15;0.50;;;0.50;;
1751;SDS011;873;47.696;8.068;2022-11-18T08:58:43;6.80;;;0.73;;
1751;SDS011;873;47.696;8.068;2022-11-18T09:01:09;5.73;;;1.30;;
1751;SDS011;873;47.696;8.068;2022-11-18T09:03:34;1.00;;;0.67;;
1751;SDS011;873;47.696;8.068;2022-11-18T09:06:17;1.00;;;0.80;;
1751;SDS011;873;47.696;8.068;2022-11-18T09:08:44;1.27;;;0.70;;
1751;SDS011;873;47.696;8.068;2022-11-18T09:11:11;0.60;;;0.53;;
1751;SDS011;873;47.696;8.068;2022-11-18T09:13:38;1.13;;;0.90;;
1751;SDS011;873;47.696;8.068;2022-11-18T09:16:04;0.37;;;0.37;;
1751;SDS011;873;47.696;8.068;2022-11-18T09:18:31;1.00;;;0.50;;
1751;SDS011;873;47.696;8.068;2022-11-18T09:20:59;0.60;;;0.60;;
1751;SDS011;873;47.696;8.068;2022-11-18T09:23:27;0.80;;;0.80;;
1751;SDS011;873;47.696;8.068;2022-11-18T09:26:00;2.77;;;0.80;;
1751;SDS011;873;47.696;8.068;2022-11-18T09:28:43;5.57;;;1.00;;
1751;SDS011;873;47.696;8.068;2022-11-18T09:31:10;0.63;;;0.63;;
1751;SDS011;873;47.696;8.068;2022-11-18T09:33:37;1.27;;;0.70;;
1751;SDS011;873;47.696;8.068;2022-11-18T09:36:04;4.03;;;0.70;;
1751;SDS011;873;47.696;8.068;2022-11-18T09:38:35;0.50;;;0.50;;
1751;SDS011;873;47.696;8.068;2022-11-18T09:41:06;0.30;;;0.30;;
1751;SDS011;873;47.696;8.068;2022-11-18T09:46:09;0.20;;;0.20;;
1751;SDS011;873;47.696;8.068;2022-11-18T09:48:47;0.20;;;0.10;;
1751;SDS011;873;47.696;8.068;2022-11-18T09:51:36;0.07;;;0.07;;
1751;SDS011;873;47.696;8.068;2022-11-18T09:54:04;0.10;;;0.10;;
1751;SDS011;873;47.696;8.068;2022-11-18T09:56:34;0.17;;;0.10;;
1751;SDS011;873;47.696;8.068;2022-11-18T09:59:00;0.10;;;0.10;;
1751;SDS011;873;47.696;8.068;2022-11-18T10:01:27;0.10;;;0.10;;
1751;SDS011;873;47.696;8.068;2022-11-18T10:03:54;0.10;;;0.10;;
1751;SDS011;873;47.696;8.068;2022-11-18T10:06:23;0.40;;;0.13;;
1751;SDS011;873;47.696;8.068;2022-11-18T10:11:17;0.20;;;0.20;;
1751;SDS011;873;47.696;8.068;2022-11-18T10:19:24;0.10;;;0.00;;
1751;SDS011;873;47.696;8.068;2022-11-18T10:24:24;0.47;;;0.10;;
1751;SDS011;873;47.696;8.068;2022-11-18T10:26:54;0.13;;;0.10;;
1751;SDS011;873;47.696;8.068;2022-11-18T10:29:21;0.00;;;0.00;;
1751;SDS011;873;47.696;8.068;2022-11-18T10:34:19;0.00;;;0.00;;
1751;SDS011;873;47.696;8.068;2022-11-18T10:39:32;0.10;;;0.00;;
1751;SDS011;873;47.696;8.068;2022-11-18T10:42:00;0.10;;;0.00;;
1751;SDS011;873;47.696;8.068;2022-11-18T10:49:48;0.00;;;0.00;;
1751;SDS011;873;47.696;8.068;2022-11-18T10:52:15;0.10;;;0.10;;
1751;SDS011;873;47.696;8.068;2022-11-18T10:54:41;0.10;;;0.10;;
1751;SDS011;873;47.696;8.068;2022-11-18T10:57:11;1.30;;;0.40;;
1751;SDS011;873;47.696;8.068;2022-11-18T11:04:48;0.57;;;0.20;;
1751;SDS011;873;47.696;8.068;2022-11-18T11:09:57;0.47;;;0.40;;
1751;SDS011;873;47.696;8.068;2022-11-18T11:12:24;0.30;;;0.30;;
1751;SDS011;873;47.696;8.068;2022-11-18T11:14:54;2.07;;;0.53;;
1751;SDS011;873;47.696;8.068;2022-11-18T11:17:30;0.40;;;0.40;;
1751;SDS011;873;47.696;8.068;2022-11-18T11:22:28;0.53;;;0.40;;
1751;SDS011;873;47.696;8.068;2022-11-18T11:24:54;0.50;;;0.40;;
1751;SDS011;873;47.696;8.068;2022-11-18T11:35:22;0.50;;;0.50;;
1751;SDS011;873;47.696;8.068;2022-11-18T11:37:51;0.40;;;0.40;;
1751;SDS011;873;47.696;8.068;2022-11-18T11:51:25;0.50;;;0.50;;
1751;SDS011;873;47.696;8.068;2022-11-18T12:02:23;1.03;;;0.40;;
1751;SDS011;873;47.696;8.068;2022-11-18T12:05:00;0.57;;;0.23;;
1751;SDS011;873;47.696;8.068;2022-11-18T12:07:38;0.10;;;0.10;;
1751;SDS011;873;47.696;8.068;2022-11-18T12:10:23;0.20;;;0.20;;
1751;SDS011;873;47.696;8.068;2022-11-18T12:18:49;0.20;;;0.20;;
1751;SDS011;873;47.696;8.068;2022-11-18T12:26:44;0.90;;;0.53;;
1751;SDS011;873;47.696;8.068;2022-11-18T12:29:19;0.57;;;0.40;;
1751;SDS011;873;47.696;8.068;2022-11-18T12:31:49;1.07;;;0.57;;
1751;SDS011;873;47.696;8.068;2022-11-18T12:36:51;0.40;;;0.40;;
1751;SDS011;873;47.696;8.068;2022-11-18T12:41:58;1.07;;;0.40;;
1751;SDS011;873;47.696;8.068;2022-11-18T12:44:47;0.50;;;0.40;;
1751;SDS011;873;47.696;8.068;2022-11-18T12:47:14;1.10;;;0.50;;
1751;SDS011;873;47.696;8.068;2022-11-18T12:55:15;1.53;;;0.60;;
1751;SDS011;873;47.696;8.068;2022-11-18T12:57:44;1.30;;;0.53;;
1751;SDS011;873;47.696;8.068;2022-11-18T13:00:26;0.60;;;0.50;;
1751;SDS011;873;47.696;8.068;2022-11-18T13:02:54;2.50;;;0.80;;
1751;SDS011;873;47.696;8.068;2022-11-18T13:05:22;0.90;;;0.80;;
1751;SDS011;873;47.696;8.068;2022-11-18T13:07:50;2.63;;;0.50;;
1751;SDS011;873;47.696;8.068;2022-11-18T13:10:39;0.87;;;0.40;;
1751;SDS011;873;47.696;8.068;2022-11-18T13:16:03;1.47;;;0.30;;
1751;SDS011;873;47.696;8.068;2022-11-18T13:18:57;0.60;;;0.47;;
1751;SDS011;873;47.696;8.068;2022-11-18T13:21:24;0.60;;;0.40;;
1751;SDS011;873;47.696;8.068;2022-11-18T13:24:11;2.83;;;0.80;;
1751;SDS011;873;47.696;8.068;2022-11-18T13:26:39;1.33;;;0.80;;
1751;SDS011;873;47.696;8.068;2022-11-18T13:34:10;2.17;;;0.70;;
1751;SDS011;873;47.696;8.068;2022-11-18T13:36:41;2.03;;;0.83;;
1751;SDS011;873;47.696;8.068;2022-11-18T13:39:16;2.97;;;0.57;;
1751;SDS011;873;47.696;8.068;2022-11-18T13:42:12;2.57;;;0.80;;
1751;SDS011;873;47.696;8.068;2022-11-18T13:52:26;2.07;;;0.90;;
1751;SDS011;873;47.696;8.068;2022-11-18T13:54:56;6.97;;;1.03;;
1751;SDS011;873;47.696;8.068;2022-11-18T13:57:24;3.90;;;1.30;;
1751;SDS011;873;47.696;8.068;2022-11-18T13:59:51;3.90;;;0.80;;
1751;SDS011;873;47.696;8.068;2022-11-18T14:02:19;1.40;;;0.60;;
1751;SDS011;873;47.696;8.068;2022-11-18T14:04:53;2.67;;;1.00;;
1751;SDS011;873;47.696;8.068;2022-11-18T14:07:29;1.80;;;1.00;;
1751;SDS011;873;47.696;8.068;2022-11-18T14:09:58;4.43;;;0.93;;
1751;SDS011;873;47.696;8.068;2022-11-18T14:12:27;2.47;;;1.03;;
1751;SDS011;873;47.696;8.068;2022-11-18T14:17:49;1.87;;;0.80;;
1751;SDS011;873;47.696;8.068;2022-11-18T14:20:16;2.77;;;1.90;;
1751;SDS011;873;47.696;8.068;2022-11-18T14:22:42;2.23;;;0.80;;
1751;SDS011;873;47.696;8.068;2022-11-18T14:27:54;3.10;;;1.40;;
1751;SDS011;873;47.696;8.068;2022-11-18T14:33:15;0.90;;;0.70;;
1751;SDS011;873;47.696;8.068;2022-11-18T14:35:49;4.73;;;1.20;;
1751;SDS011;873;47.696;8.068;2022-11-18T14:38:18;3.77;;;1.43;;
1751;SDS011;873;47.696;8.068;2022-11-18T14:40:45;3.63;;;1.10;;
1751;SDS011;873;47.696;8.068;2022-11-18T14:43:11;2.63;;;0.90;;
1751;SDS011;873;47.696;8.068;2022-11-18T14:45:37;3.63;;;1.07;;
1751;SDS011;873;47.696;8.068;2022-11-18T14:48:03;4.90;;;0.90;;
1751;SDS011;873;47.696;8.068;2022-11-18T14:50:29;1.27;;;0.80;;
1751;SDS011;873;47.696;8.068;2022-11-18T14:52:55;2.67;;;0.60;;
1751;SDS011;873;47.696;8.068;2022-11-18T14:55:20;3.27;;;0.50;;
1751;SDS011;873;47.696;8.068;2022-11-18T14:57:46;1.30;;;0.60;;
1751;SDS011;873;47.696;8.068;2022-11-18T15:00:12;1.43;;;0.60;;
1751;SDS011;873;47.696;8.068;2022-11-18T15:02:39;0.40;;;0.30;;
1751;SDS011;873;47.696;8.068;2022-11-18T15:05:05;1.03;;;0.50;;
1751;SDS011;873;47.696;8.068;2022-11-18T15:07:31;2.70;;;0.60;;
1751;SDS011;873;47.696;8.068;2022-11-18T15:09:56;2.83;;;0.70;;
1751;SDS011;873;47.696;8.068;2022-11-18T15:12:22;4.17;;;0.60;;
1751;SDS011;873;47.696;8.068;2022-11-18T15:14:48;7.73;;;1.10;;
1751;SDS011;873;47.696;8.068;2022-11-18T15:17:13;4.27;;;0.90;;
1751;SDS011;873;47.696;8.068;2022-11-18T15:19:39;4.33;;;0.70;;
1751;SDS011;873;47.696;8.068;2022-11-18T15:22:05;2.83;;;0.70;;
1751;SDS011;873;47.696;8.068;2022-11-18T15:24:31;1.80;;;0.60;;
1751;SDS011;873;47.696;8.068;2022-11-18T15:26:56;3.23;;;0.60;;
1751;SDS011;873;47.696;8.068;2022-11-18T15:29:22;0.90;;;0.60;;
1751;SDS011;873;47.696;8.068;2022-11-18T15:31:49;1.00;;;0.47;;
1751;SDS011;873;47.696;8.068;2022-11-18T15:34:16;5.60;;;1.00;;
1751;SDS011;873;47.696;8.068;2022-11-18T15:36:44;1.20;;;0.73;;
1751;SDS011;873;47.696;8.068;2022-11-18T15:39:09;3.03;;;0.80;;
1751;SDS011;873;47.696;8.068;2022-11-18T15:41:36;6.07;;;1.00;;
1751;SDS011;873;47.696;8.068;2022-11-18T15:44:03;1.67;;;0.83;;
1751;SDS011;873;47.696;8.068;2022-11-18T15:46:29;5.50;;;0.90;;
1751;SDS011;873;47.696;8.068;2022-11-18T15:48:55;5.70;;;0.87;;
1751;SDS011;873;47.696;8.068;2022-11-18T15:51:22;4.03;;;1.10;;
1751;SDS011;873;47.696;8.068;2022-11-18T15:53:48;4.30;;;1.03;;
1751;SDS011;873;47.696;8.068;2022-11-18T15:58:42;1.93;;;1.00;;
1751;SDS011;873;47.696;8.068;2022-11-18T16:01:08;4.47;;;1.03;;
1751;SDS011;873;47.696;8.068;2022-11-18T16:03:35;5.57;;;1.30;;
1751;SDS011;873;47.696;8.068;2022-11-18T16:06:01;1.63;;;0.80;;
1751;SDS011;873;47.696;8.068;2022-11-18T16:08:28;7.97;;;1.40;;
1751;SDS011;873;47.696;8.068;2022-11-18T16:10:54;4.00;;;0.77;;
1751;SDS011;873;47.696;8.068;2022-11-18T16:13:40;4.97;;;1.13;;
1751;SDS011;873;47.696;8.068;2022-11-18T16:16:06;2.30;;;0.90;;
1751;SDS011;873;47.696;8.068;2022-11-18T16:18:31;5.40;;;0.97;;
1751;SDS011;873;47.696;8.068;2022-11-18T16:20:57;4.53;;;0.90;;
1751;SDS011;873;47.696;8.068;2022-11-18T16:23:23;2.53;;;1.00;;
1751;SDS011;873;47.696;8.068;2022-11-18T16:25:49;2.23;;;0.93;;
1751;SDS011;873;47.696;8.068;2022-11-18T16:28:15;5.20;;;1.27;;
1751;SDS011;873;47.696;8.068;2022-11-18T16:30:46;4.20;;;1.00;;
1751;SDS011;873;47.696;8.068;2022-11-18T16:33:32;2.23;;;1.00;;
1751;SDS011;873;47.696;8.068;2022-11-18T16:35:58;0.30;;;0.20;;
1751;SDS011;873;47.696;8.068;2022-11-18T16:38:23;1.07;;;0.40;;
1751;SDS011;873;47.696;8.068;2022-11-18T16:40:57;1.30;;;0.33;;
1751;SDS011;873;47.696;8.068;2022-11-18T16:43:23;0.20;;;0.20;;
1751;SDS011;873;47.696;8.068;2022-11-18T16:45:50;1.60;;;0.40;;
1751;SDS011;873;47.696;8.068;2022-11-18T16:48:17;0.80;;;0.40;;
1751;SDS011;873;47.696;8.068;2022-11-18T16:50:43;0.87;;;0.30;;
1751;SDS011;873;47.696;8.068;2022-11-18T16:53:09;2.53;;;0.70;;
1751;SDS011;873;47.696;8.068;2022-11-18T16:55:34;0.40;;;0.37;;
1751;SDS011;873;47.696;8.068;2022-11-18T16:58:00;1.30;;;0.67;;
1751;SDS011;873;47.696;8.068;2022-11-18T17:00:25;2.07;;;0.80;;
1751;SDS011;873;47.696;8.068;2022-11-18T17:02:51;3.27;;;1.10;;
1751;SDS011;873;47.696;8.068;2022-11-18T17:05:17;2.80;;;1.20;;
1751;SDS011;873;47.696;8.068;2022-11-18T17:07:42;2.40;;;1.00;;
1751;SDS011;873;47.696;8.068;2022-11-18T17:10:08;2.47;;;1.33;;
1751;SDS011;873;47.696;8.068;2022-11-18T17:12:45;1.07;;;0.87;;
1751;SDS011;873;47.696;8.068;2022-11-18T17:15:11;1.73;;;0.80;;
1751;SDS011;873;47.696;8.068;2022-11-18T17:17:37;0.90;;;0.70;;
1751;SDS011;873;47.696;8.068;2022-11-18T17:20:03;4.47;;;1.30;;
1751;SDS011;873;47.696;8.068;2022-11-18T17:22:29;9.03;;;1.90;;
1751;SDS011;873;47.696;8.068;2022-11-18T17:24:54;1.67;;;1.23;;
1751;SDS011;873;47.696;8.068;2022-11-18T17:27:20;5.83;;;1.53;;
1751;SDS011;873;47.696;8.068;2022-11-18T17:29:45;2.17;;;1.30;;
1751;SDS011;873;47.696;8.068;2022-11-18T17:32:12;4.97;;;2.50;;
1751;SDS011;873;47.696;8.068;2022-11-18T17:34:37;4.60;;;1.97;;
1751;SDS011;873;47.696;8.068;2022-11-18T17:37:03;3.13;;;2.20;;
1751;SDS011;873;47.696;8.068;2022-11-18T17:39:28;5.37;;;1.73;;
1751;SDS011;873;47.696;8.068;2022-11-18T17:41:55;7.00;;;2.00;;
1751;SDS011;873;47.696;8.068;2022-11-18T17:44:41;4.67;;;2.50;;
1751;SDS011;873;47.696;8.068;2022-11-18T17:47:06;6.70;;;2.30;;
1751;SDS011;873;47.696;8.068;2022-11-18T17:49:32;5.40;;;2.17;;
1751;SDS011;873;47.696;8.068;2022-11-18T17:51:58;2.63;;;1.50;;